Soldotna, AK

11:28 PM AKDT on July 27, 2016 (GMT -0800)
Funny River Mile 13.5 | | Change Station

Elev 208 ft 60.51 °N, 150.80 °W | Updated 9 seconds ago

Overcast
Overcast
57.9 °F
Feels Like 57.9 °F
N
0.0
Wind Variable Wind from NNE
Gusts 0.0 mph

Today
High -- | Low -- °F
--% Chance of Precip.
Yesterday
High -- | Low -- °F
Precip. -- in
Pressure 29.78 in
Visibility 10.0 miles
Clouds Scattered Clouds 5500 ft
Overcast 9000 ft
Dew Point 52.1 °F
Humidity 81%
Rainfall 0.02 in
Snow Depth Not available.
5:30 AM 10:47 PM
Waning Crescent, 35% visible
METAR PAEN 280653Z AUTO 01004KT 10SM -RA SCT055 OVC090 15/12 A2977 RMK AO2 RAB02 SLP082 P0000 T01500122 TSNO
Pressure 29.78 in
Visibility 10.0 miles
Clouds Scattered Clouds 5500 ft
Overcast 9000 ft
Dew Point 52.1 °F
Humidity 81%
Rainfall 0.02 in
Snow Depth Not available.
5:30 AM 10:47 PM
Waning Crescent, 35% visible
METAR PAEN 280653Z AUTO 01004KT 10SM -RA SCT055 OVC090 15/12 A2977 RMK AO2 RAB02 SLP082 P0000 T01500122 TSNO

10-Day Weather Forecast

Almanac

Astronomy

Jul. 27, 2016 Rise Set
Actual Time
Civil Twilight
Nautical Twilight
Astronomical Twilight
Moon
Length of Visible Light
Length of Day
Tomorrow will be .
, % of the Moon is Illuminated

Today's Extremes

State Highs State Lows

Community

WunderPhotos

Upload Photos

1,928,070 photos uploaded!

WunderBlog® & News

Nearby

Air Quality

  Air Quality AQ Index Pollutant
Not available.

Snow Depth

Station Depth Elevation

Earthquake Activity

City Distance Mag. Time & Date
Minimum magnitude displayed is 2.5.

Coastal Water Temperatures

Place Temperature

Stations

Nearby Weather Stations

Station Location Temp. Windchill Dew Point Humidity Wind Precip. Elev Updated Type
                   

Watches & Warnings

There are currently no watches in effect.